createdAt,value
2022-08-30T00:03:31.389Z,14.46
2022-08-30T00:08:32.223Z,14.54
2022-08-30T00:13:33.426Z,14.45
2022-08-30T00:18:35.983Z,14.40
2022-08-30T00:23:37.321Z,14.45
2022-08-30T00:28:38.007Z,14.22
2022-08-30T00:33:40.518Z,14.17
2022-08-30T00:38:41.140Z,14.26
2022-08-30T00:43:41.825Z,14.22
2022-08-30T00:48:48.785Z,14.04
2022-08-30T00:53:52.136Z,14.21
2022-08-30T00:58:56.373Z,13.92
2022-08-30T01:03:58.881Z,13.92
2022-08-30T01:08:59.982Z,13.99
2022-08-30T01:14:02.200Z,13.92
2022-08-30T01:19:05.303Z,13.96
2022-08-30T01:24:10.093Z,13.96
2022-08-30T01:29:14.402Z,13.77
2022-08-30T01:34:15.032Z,13.66
2022-08-30T01:39:18.671Z,13.82
2022-08-30T01:44:19.290Z,13.88
2022-08-30T01:49:27.402Z,13.84
2022-08-30T01:54:33.386Z,13.58
2022-08-30T01:59:40.791Z,13.40
2022-08-30T02:04:41.873Z,13.32
2022-08-30T02:09:44.174Z,13.26
2022-08-30T02:14:46.857Z,13.33
2022-08-30T02:19:47.623Z,13.23
2022-08-30T02:24:49.570Z,13.25
2022-08-30T02:29:50.230Z,13.41
2022-08-30T02:34:50.956Z,13.61
2022-08-30T02:39:53.367Z,13.59
2022-08-30T02:44:54.592Z,13.31
2022-08-30T02:49:55.201Z,13.31
2022-08-30T02:54:57.215Z,13.18
2022-08-30T02:59:58.632Z,13.10
2022-08-30T03:04:59.260Z,12.96
2022-08-30T03:10:01.221Z,12.94
2022-08-30T03:15:01.886Z,12.93
2022-08-30T03:20:02.953Z,13.06
2022-08-30T03:25:05.811Z,13.06
2022-08-30T03:30:08.401Z,12.99
2022-08-30T03:35:10.107Z,13.01
2022-08-30T03:40:14.486Z,13.16
2022-08-30T03:45:18.238Z,13.16
2022-08-30T03:50:18.964Z,12.87
2022-08-30T03:55:21.117Z,12.79
2022-08-30T04:00:22.265Z,12.84
2022-08-30T04:05:22.879Z,12.94
2022-08-30T04:10:25.021Z,12.73
2022-08-30T04:15:25.746Z,12.55
2022-08-30T04:20:27.358Z,12.42
2022-08-30T04:25:29.383Z,12.36
2022-08-30T04:30:30.022Z,12.27
2022-08-30T04:35:30.665Z,12.28
2022-08-30T04:40:32.738Z,12.35
2022-08-30T04:45:33.464Z,12.33
2022-08-30T04:50:34.819Z,12.36
2022-08-30T04:55:46.704Z,12.45
2022-08-30T05:00:47.387Z,12.44
2022-08-30T05:05:49.191Z,12.54
2022-08-30T05:10:53.109Z,12.56
2022-08-30T05:15:53.716Z,12.53
2022-08-30T05:21:05.110Z,12.60
2022-08-30T05:26:09.914Z,12.63
2022-08-30T05:31:16.121Z,12.77
2022-08-30T05:36:19.448Z,12.85
2022-08-30T05:41:22.863Z,12.97
2022-08-30T05:46:29.794Z,13.12
2022-08-30T05:51:32.046Z,13.22
2022-08-30T05:56:37.235Z,13.41
2022-08-30T06:01:40.599Z,13.53
2022-08-30T06:06:43.301Z,13.61
2022-08-30T06:11:46.657Z,13.73
2022-08-30T06:16:47.442Z,13.82
2022-08-30T06:21:50.575Z,13.85
2022-08-30T06:26:52.615Z,14.08
2022-08-30T06:31:53.339Z,14.25
2022-08-30T06:36:54.974Z,14.40
2022-08-30T06:41:56.902Z,14.53
2022-08-30T06:47:00.860Z,14.69
2022-08-30T06:52:01.659Z,14.83
2022-08-30T06:57:05.675Z,14.84
2022-08-30T07:02:07.329Z,14.93
2022-08-30T07:07:11.716Z,15.07
2022-08-30T07:12:15.487Z,15.30
2022-08-30T07:17:34.899Z,15.49
2022-08-30T07:22:35.803Z,15.69
2022-08-30T07:27:37.868Z,15.86
2022-08-30T07:32:39.009Z,16.08
2022-08-30T07:37:39.675Z,16.23
2022-08-30T07:42:41.939Z,16.41
2022-08-30T07:47:42.992Z,16.54
2022-08-30T07:52:43.714Z,16.68
2022-08-30T07:57:45.656Z,16.78
2022-08-30T08:02:46.321Z,16.88
2022-08-30T08:07:47.007Z,17.21
2022-08-30T08:12:49.662Z,17.48
2022-08-30T08:17:52.762Z,17.72
2022-08-30T08:22:53.696Z,17.86
2022-08-30T08:27:55.926Z,18.12
2022-08-30T08:32:57.892Z,18.22
2022-08-30T08:37:58.641Z,18.33
2022-08-30T08:43:06.107Z,18.69
2022-08-30T08:48:11.564Z,18.89
2022-08-30T08:53:51.462Z,19.12
2022-08-30T08:58:56.570Z,19.21
2022-08-30T09:03:59.159Z,19.29
2022-08-30T09:08:59.827Z,19.38
2022-08-30T09:14:01.830Z,19.54
2022-08-30T09:19:02.758Z,19.99
2022-08-30T09:24:08.659Z,20.29
2022-08-30T09:29:18.079Z,20.54
2022-08-30T09:34:20.827Z,20.60
2022-08-30T09:39:28.670Z,20.88
2022-08-30T09:44:38.772Z,21.17
2022-08-30T09:49:43.134Z,21.31
2022-08-30T09:54:58.811Z,21.38
2022-08-30T10:00:07.239Z,22.40
2022-08-30T10:05:16.446Z,22.83
2022-08-30T10:10:23.563Z,22.86
2022-08-30T10:15:30.898Z,22.74
2022-08-30T10:20:37.707Z,22.38
2022-08-30T10:25:44.816Z,21.95
2022-08-30T10:30:53.716Z,21.59
2022-08-30T10:35:57.659Z,21.26
2022-08-30T10:41:14.827Z,21.25
2022-08-30T10:46:20.778Z,21.34
2022-08-30T10:51:27.571Z,21.60
2022-08-30T10:56:30.399Z,21.55
2022-08-30T11:01:51.973Z,22.14
2022-08-30T11:07:09.840Z,22.78
2022-08-30T11:12:24.947Z,23.56
2022-08-30T11:17:32.660Z,24.19
2022-08-30T11:22:38.780Z,24.60
2022-08-30T11:27:41.995Z,24.78
2022-08-30T11:33:00.166Z,24.84
2022-08-30T11:38:11.905Z,23.47
2022-08-30T11:43:51.014Z,23.52
2022-08-30T11:48:56.869Z,23.07
2022-08-30T11:54:06.435Z,22.52
2022-08-30T11:59:18.987Z,22.64
2022-08-30T12:04:37.417Z,22.72
2022-08-30T12:10:05.819Z,23.02
2022-08-30T12:15:06.938Z,23.57
2022-08-30T12:20:21.289Z,24.34
2022-08-30T12:25:39.889Z,23.75
2022-08-30T12:30:41.383Z,22.87
2022-08-30T12:35:45.328Z,22.50
2022-08-30T12:40:54.589Z,21.78
2022-08-30T12:45:58.450Z,21.67
2022-08-30T12:51:10.937Z,21.79
2022-08-30T12:56:14.623Z,21.98
2022-08-30T13:01:19.840Z,22.26
2022-08-30T13:11:52.018Z,23.18
2022-08-30T13:17:06.935Z,23.55
2022-08-30T13:22:24.373Z,23.92
2022-08-30T13:27:30.161Z,24.24
2022-08-30T13:32:38.784Z,23.52
2022-08-30T13:37:49.997Z,23.44
2022-08-30T13:42:53.526Z,22.68
2022-08-30T13:47:55.872Z,22.74
2022-08-30T13:52:56.565Z,22.73
2022-08-30T13:57:58.571Z,22.47
2022-08-30T14:02:59.945Z,22.78
2022-08-30T14:08:01.171Z,23.28
2022-08-30T14:13:08.926Z,23.07
2022-08-30T14:18:13.500Z,23.25
2022-08-30T14:23:16.490Z,23.68
2022-08-30T14:28:18.702Z,23.99
2022-08-30T14:33:21.318Z,23.57
2022-08-30T14:38:21.945Z,23.73
2022-08-30T14:43:24.383Z,23.94
2022-08-30T14:48:25.303Z,24.37
2022-08-30T14:53:28.839Z,24.51
2022-08-30T14:58:31.006Z,24.89
2022-08-30T15:03:31.675Z,25.12
2022-08-30T15:08:32.400Z,24.24
2022-08-30T15:13:35.032Z,23.21
2022-08-30T15:18:35.823Z,23.48
2022-08-30T15:23:36.584Z,23.59
2022-08-30T15:28:39.567Z,23.20
2022-08-30T15:33:40.666Z,23.40
2022-08-30T15:38:45.006Z,23.45
2022-08-30T15:43:47.300Z,23.01
2022-08-30T15:48:48.005Z,22.93
2022-08-30T15:53:49.333Z,22.61
2022-08-30T15:58:53.010Z,22.20
2022-08-30T16:03:53.942Z,21.99
2022-08-30T16:08:54.604Z,22.16
2022-08-30T16:13:57.559Z,22.16
2022-08-30T16:18:58.559Z,22.12
2022-08-30T16:24:01.761Z,22.37
2022-08-30T16:29:05.319Z,22.52
2022-08-30T16:34:07.894Z,22.82
2022-08-30T16:39:12.695Z,22.36
2022-08-30T16:44:15.643Z,21.98
2022-08-30T16:49:18.491Z,21.86
2022-08-30T16:54:19.860Z,21.60
2022-08-30T16:59:22.162Z,22.74
2022-08-30T17:04:22.853Z,23.04
2022-08-30T17:09:23.457Z,23.34
2022-08-30T17:14:27.603Z,23.87
2022-08-30T17:19:29.302Z,23.54
2022-08-30T17:24:30.360Z,22.94
2022-08-30T17:29:32.640Z,22.14
2022-08-30T17:34:34.666Z,21.63
2022-08-30T17:39:35.561Z,21.22
2022-08-30T17:44:38.053Z,20.84
2022-08-30T17:49:42.965Z,20.53
2022-08-30T17:54:43.577Z,20.17
2022-08-30T17:59:46.122Z,19.94
2022-08-30T18:04:47.142Z,19.75
2022-08-30T18:09:47.774Z,19.60
2022-08-30T18:14:52.900Z,19.33
2022-08-30T18:19:55.064Z,19.33
2022-08-30T18:25:02.228Z,19.06
2022-08-30T18:30:07.004Z,19.08
2022-08-30T18:35:12.450Z,18.71
2022-08-30T18:40:18.764Z,18.69
2022-08-30T18:45:23.051Z,18.54
2022-08-30T18:50:23.698Z,18.55
2022-08-30T18:55:25.016Z,18.33
2022-08-30T19:00:27.177Z,18.36
2022-08-30T19:05:28.316Z,18.31
2022-08-30T19:10:32.907Z,18.20
2022-08-30T19:15:35.671Z,18.04
2022-08-30T19:20:36.345Z,18.00
2022-08-30T19:25:38.095Z,17.94
2022-08-30T19:30:41.309Z,17.81
2022-08-30T19:35:48.937Z,17.69
2022-08-30T19:40:54.710Z,17.57
2022-08-30T19:45:58.231Z,17.59
2022-08-30T19:50:59.013Z,17.52
2022-08-30T19:56:00.248Z,17.51
2022-08-30T20:01:10.562Z,17.41
2022-08-30T20:06:23.070Z,17.43
2022-08-30T20:11:23.731Z,17.42
2022-08-30T20:16:35.476Z,17.23
2022-08-30T20:21:38.784Z,17.29
2022-08-30T20:26:40.159Z,17.14
2022-08-30T20:31:42.090Z,17.04
2022-08-30T20:36:43.129Z,16.93
2022-08-30T20:41:44.490Z,16.87
2022-08-30T20:46:49.445Z,16.78
2022-08-30T20:51:54.302Z,16.70
2022-08-30T20:56:55.290Z,16.65
2022-08-30T21:01:58.169Z,16.61
2022-08-30T21:06:59.365Z,16.51
2022-08-30T21:12:00.013Z,16.50
2022-08-30T21:17:02.173Z,16.56
2022-08-30T21:22:03.758Z,16.74
2022-08-30T21:27:04.832Z,16.99
2022-08-30T21:32:08.299Z,16.95
2022-08-30T21:37:08.894Z,16.89
2022-08-30T21:42:11.970Z,16.83
2022-08-30T21:47:13.931Z,16.79
2022-08-30T21:52:23.878Z,16.64
2022-08-30T21:57:24.817Z,16.61
2022-08-30T22:02:27.074Z,16.58
2022-08-30T22:07:27.889Z,16.50
2022-08-30T22:12:28.674Z,16.45
2022-08-30T22:17:30.623Z,16.35
2022-08-30T22:22:31.262Z,16.24
2022-08-30T22:27:31.936Z,16.12
2022-08-30T22:32:33.863Z,16.09
2022-08-30T22:37:34.475Z,16.11
2022-08-30T22:42:36.186Z,16.06
2022-08-30T22:47:38.111Z,15.95
2022-08-30T22:52:38.962Z,15.87
2022-08-30T22:57:40.745Z,15.81
2022-08-30T23:02:42.858Z,15.70
2022-08-30T23:07:44.156Z,15.72
2022-08-30T23:12:45.217Z,15.68
2022-08-30T23:17:47.163Z,15.52
2022-08-30T23:22:47.603Z,15.40
2022-08-30T23:28:06.079Z,15.23
2022-08-30T23:33:25.737Z,15.26
2022-08-30T23:38:44.144Z,15.23
2022-08-30T23:44:02.092Z,15.12
2022-08-30T23:49:22.291Z,15.13
2022-08-30T23:54:40.617Z,15.06
2022-08-30T23:59:58.904Z,15.06
